Pierson, Iowa
Current Conditions -  °F | °C
As of 2:55 AM on Thursday 23 Oct 2014 (Local Time) from KCKP Reporting Station
Light Rain Light Rain  
Wind Chill: 58°   Ceiling: 1500
Heat Index: 58°   Visibility: 5mi
Dew Point: 58°   Wind: 0mph
Humidity: 100%   Direction: NA
Pressure: 30.01"   Gusts: NA
Location:  42.54°N, 95.87°W
Report Text: KCKP 230755Z AUTO 00000KT 5SM -RA SCT008 BKN015 OVC038 14/14 A3001 RMK AO2 P0001 T01430143
Loading
Personal Weather Stations






























Interactive Weather Map
Tropical Storm Tracking
New forecast layout! Learn more

10-Day Weather Forecast

Advertisements
Track Severe Weather on mobile